sensor_id;sensor_type;location;lat;lon;timestamp;pressure;altitude;pressure_sealevel;temperature
79053;BMP280;68451;49.510;6.026;2024-02-15T00:01:53;98353.19;;;11.45
79053;BMP280;68451;49.510;6.026;2024-02-15T00:03:54;98405.81;;;11.73
79053;BMP280;68451;49.510;6.026;2024-02-15T00:05:57;98356.25;;;11.42
79053;BMP280;68451;49.510;6.026;2024-02-15T00:07:59;98374.69;;;11.47
79053;BMP280;68451;49.510;6.026;2024-02-15T00:10:01;98235.88;;;10.57
79053;BMP280;68451;49.510;6.026;2024-02-15T00:12:05;98367.41;;;11.49
79053;BMP280;68451;49.510;6.026;2024-02-15T00:14:07;98389.28;;;11.54
79053;BMP280;68451;49.510;6.026;2024-02-15T00:16:13;98357.09;;;11.36
79053;BMP280;68451;49.510;6.026;2024-02-15T00:18:15;98377.44;;;11.52
79053;BMP280;68451;49.510;6.026;2024-02-15T00:20:18;98399.44;;;11.62
79053;BMP280;68451;49.510;6.026;2024-02-15T00:22:21;98404.03;;;11.67
79053;BMP280;68451;49.510;6.026;2024-02-15T00:24:23;98404.63;;;11.69
79053;BMP280;68451;49.510;6.026;2024-02-15T00:26:28;98379.97;;;11.58
79053;BMP280;68451;49.510;6.026;2024-02-15T00:28:30;98405.41;;;11.69
79053;BMP280;68451;49.510;6.026;2024-02-15T00:30:32;98406.44;;;11.68
79053;BMP280;68451;49.510;6.026;2024-02-15T00:32:34;98355.72;;;11.33
79053;BMP280;68451;49.510;6.026;2024-02-15T00:34:37;98397.28;;;11.59
79053;BMP280;68451;49.510;6.026;2024-02-15T00:36:42;98243.59;;;10.70
79053;BMP280;68451;49.510;6.026;2024-02-15T00:38:45;98373.59;;;11.54
79053;BMP280;68451;49.510;6.026;2024-02-15T00:40:47;98384.41;;;11.58
79053;BMP280;68451;49.510;6.026;2024-02-15T00:42:49;98388.03;;;11.57
79053;BMP280;68451;49.510;6.026;2024-02-15T00:44:51;98371.78;;;11.55
79053;BMP280;68451;49.510;6.026;2024-02-15T00:46:53;98390.16;;;11.66
79053;BMP280;68451;49.510;6.026;2024-02-15T00:48:55;98370.91;;;11.61
79053;BMP280;68451;49.510;6.026;2024-02-15T00:50:58;98375.41;;;11.54
79053;BMP280;68451;49.510;6.026;2024-02-15T00:53:00;98358.19;;;11.46
79053;BMP280;68451;49.510;6.026;2024-02-15T00:55:02;98390.59;;;11.63
79053;BMP280;68451;49.510;6.026;2024-02-15T00:57:04;98330.78;;;11.31
79053;BMP280;68451;49.510;6.026;2024-02-15T00:59:06;98342.22;;;11.36
79053;BMP280;68451;49.510;6.026;2024-02-15T01:01:08;98390.59;;;11.63
79053;BMP280;68451;49.510;6.026;2024-02-15T01:03:10;98381.75;;;11.64
79053;BMP280;68451;49.510;6.026;2024-02-15T01:05:12;98394.00;;;11.64
79053;BMP280;68451;49.510;6.026;2024-02-15T01:07:17;98389.13;;;11.67
79053;BMP280;68451;49.510;6.026;2024-02-15T01:09:18;98392.19;;;11.64
79053;BMP280;68451;49.510;6.026;2024-02-15T01:11:20;98369.38;;;11.53
79053;BMP280;68451;49.510;6.026;2024-02-15T01:13:22;98272.72;;;10.92
79053;BMP280;68451;49.510;6.026;2024-02-15T01:15:25;98340.91;;;11.45
79053;BMP280;68451;49.510;6.026;2024-02-15T01:17:27;98365.31;;;11.57
79053;BMP280;68451;49.510;6.026;2024-02-15T01:19:29;98225.16;;;10.65
79053;BMP280;68451;49.510;6.026;2024-02-15T01:21:31;98221.78;;;10.58
79053;BMP280;68451;49.510;6.026;2024-02-15T01:23:34;98109.34;;;9.92
79053;BMP280;68451;49.510;6.026;2024-02-15T01:25:38;98099.19;;;9.84
79053;BMP280;68451;49.510;6.026;2024-02-15T01:27:41;98262.91;;;10.88
79053;BMP280;68451;49.510;6.026;2024-02-15T01:29:43;98332.84;;;11.29
79053;BMP280;68451;49.510;6.026;2024-02-15T01:31:45;98232.53;;;10.68
79053;BMP280;68451;49.510;6.026;2024-02-15T01:33:47;98385.56;;;11.62
79053;BMP280;68451;49.510;6.026;2024-02-15T01:35:50;98380.34;;;11.62
79053;BMP280;68451;49.510;6.026;2024-02-15T01:37:51;98383.56;;;11.64
79053;BMP280;68451;49.510;6.026;2024-02-15T01:39:53;98376.56;;;11.58
79053;BMP280;68451;49.510;6.026;2024-02-15T01:41:55;98222.22;;;10.55
79053;BMP280;68451;49.510;6.026;2024-02-15T01:43:57;98357.41;;;11.46
79053;BMP280;68451;49.510;6.026;2024-02-15T01:45:59;98384.22;;;11.59
79053;BMP280;68451;49.510;6.026;2024-02-15T01:48:05;98234.31;;;10.74
79053;BMP280;68451;49.510;6.026;2024-02-15T01:50:10;98258.53;;;10.82
79053;BMP280;68451;49.510;6.026;2024-02-15T01:52:13;98256.28;;;10.85
79053;BMP280;68451;49.510;6.026;2024-02-15T01:54:16;98345.41;;;11.38
79053;BMP280;68451;49.510;6.026;2024-02-15T01:56:19;98327.81;;;11.27
79053;BMP280;68451;49.510;6.026;2024-02-15T01:58:22;98344.97;;;11.41
79053;BMP280;68451;49.510;6.026;2024-02-15T02:00:24;98234.34;;;10.68
79053;BMP280;68451;49.510;6.026;2024-02-15T02:02:28;98191.34;;;10.52
79053;BMP280;68451;49.510;6.026;2024-02-15T02:04:32;98344.69;;;11.49
79053;BMP280;68451;49.510;6.026;2024-02-15T02:06:37;98331.75;;;11.36
79053;BMP280;68451;49.510;6.026;2024-02-15T02:08:39;98330.44;;;11.45
79053;BMP280;68451;49.510;6.026;2024-02-15T02:10:41;98336.69;;;11.44
79053;BMP280;68451;49.510;6.026;2024-02-15T02:12:43;98353.84;;;11.58
79053;BMP280;68451;49.510;6.026;2024-02-15T02:14:46;98200.41;;;10.68
79053;BMP280;68451;49.510;6.026;2024-02-15T02:16:47;98339.16;;;11.57
79053;BMP280;68451;49.510;6.026;2024-02-15T02:18:49;98224.16;;;10.85
79053;BMP280;68451;49.510;6.026;2024-02-15T02:20:52;98303.22;;;11.35
79053;BMP280;68451;49.510;6.026;2024-02-15T02:23:06;97973.28;;;9.34
79053;BMP280;68451;49.510;6.026;2024-02-15T02:25:09;98305.97;;;11.40
79053;BMP280;68451;49.510;6.026;2024-02-15T02:27:13;98297.56;;;11.38
79053;BMP280;68451;49.510;6.026;2024-02-15T02:29:16;98313.31;;;11.49
79053;BMP280;68451;49.510;6.026;2024-02-15T02:31:18;98302.19;;;11.36
79053;BMP280;68451;49.510;6.026;2024-02-15T02:33:19;98333.13;;;11.57
79053;BMP280;68451;49.510;6.026;2024-02-15T02:35:25;98060.28;;;9.82
79053;BMP280;68451;49.510;6.026;2024-02-15T02:37:27;98194.19;;;10.69
79053;BMP280;68451;49.510;6.026;2024-02-15T02:39:29;98303.94;;;11.42
79053;BMP280;68451;49.510;6.026;2024-02-15T02:41:33;98158.63;;;10.50
79053;BMP280;68451;49.510;6.026;2024-02-15T02:43:35;98289.63;;;11.26
79053;BMP280;68451;49.510;6.026;2024-02-15T02:45:37;98307.63;;;11.34
79053;BMP280;68451;49.510;6.026;2024-02-15T02:47:39;98271.13;;;11.09
79053;BMP280;68451;49.510;6.026;2024-02-15T02:49:41;98286.06;;;11.20
79053;BMP280;68451;49.510;6.026;2024-02-15T02:51:43;98203.16;;;10.55
79053;BMP280;68451;49.510;6.026;2024-02-15T02:53:46;98285.56;;;11.12
79053;BMP280;68451;49.510;6.026;2024-02-15T02:55:49;98284.41;;;11.08
79053;BMP280;68451;49.510;6.026;2024-02-15T02:57:51;98257.34;;;11.02
79053;BMP280;68451;49.510;6.026;2024-02-15T02:59:54;98230.97;;;10.86
79053;BMP280;68451;49.510;6.026;2024-02-15T03:01:56;98291.81;;;11.11
79053;BMP280;68451;49.510;6.026;2024-02-15T03:03:58;98306.59;;;11.17
79053;BMP280;68451;49.510;6.026;2024-02-15T03:06:00;98308.06;;;11.13
79053;BMP280;68451;49.510;6.026;2024-02-15T03:08:03;98146.50;;;10.12
79053;BMP280;68451;49.510;6.026;2024-02-15T03:10:06;98139.31;;;10.08
79053;BMP280;68451;49.510;6.026;2024-02-15T03:12:10;98290.34;;;10.97
79053;BMP280;68451;49.510;6.026;2024-02-15T03:14:12;98275.66;;;10.77
79053;BMP280;68451;49.510;6.026;2024-02-15T03:16:14;98288.06;;;10.82
79053;BMP280;68451;49.510;6.026;2024-02-15T03:18:15;98304.34;;;10.84
79053;BMP280;68451;49.510;6.026;2024-02-15T03:20:18;98283.16;;;10.67
79053;BMP280;68451;49.510;6.026;2024-02-15T03:22:25;98251.66;;;10.44
79053;BMP280;68451;49.510;6.026;2024-02-15T03:24:27;98254.63;;;10.48
79053;BMP280;68451;49.510;6.026;2024-02-15T03:26:30;98260.84;;;10.47
79053;BMP280;68451;49.510;6.026;2024-02-15T03:28:38;98208.31;;;10.12
79053;BMP280;68451;49.510;6.026;2024-02-15T03:30:40;98315.59;;;10.85
79053;BMP280;68451;49.510;6.026;2024-02-15T03:32:42;98318.19;;;10.85
79053;BMP280;68451;49.510;6.026;2024-02-15T03:34:44;98148.94;;;9.82
79053;BMP280;68451;49.510;6.026;2024-02-15T03:36:47;98282.59;;;10.65
79053;BMP280;68451;49.510;6.026;2024-02-15T03:38:55;98280.56;;;10.67
79053;BMP280;68451;49.510;6.026;2024-02-15T03:40:57;98280.94;;;10.71
79053;BMP280;68451;49.510;6.026;2024-02-15T03:42:59;98091.66;;;9.44
79053;BMP280;68451;49.510;6.026;2024-02-15T03:45:01;98306.16;;;10.84
79053;BMP280;68451;49.510;6.026;2024-02-15T03:47:03;98280.06;;;10.77
79053;BMP280;68451;49.510;6.026;2024-02-15T03:49:07;98287.69;;;10.78
79053;BMP280;68451;49.510;6.026;2024-02-15T03:51:09;98175.78;;;10.14
79053;BMP280;68451;49.510;6.026;2024-02-15T03:53:11;98301.00;;;10.95
79053;BMP280;68451;49.510;6.026;2024-02-15T03:55:14;98280.03;;;10.84
79053;BMP280;68451;49.510;6.026;2024-02-15T03:57:17;98265.00;;;10.79
79053;BMP280;68451;49.510;6.026;2024-02-15T03:59:20;98206.75;;;10.36
79053;BMP280;68451;49.510;6.026;2024-02-15T04:01:29;98270.59;;;10.83
79053;BMP280;68451;49.510;6.026;2024-02-15T04:03:34;98125.75;;;9.99
79053;BMP280;68451;49.510;6.026;2024-02-15T04:05:36;98207.56;;;10.54
79053;BMP280;68451;49.510;6.026;2024-02-15T04:07:37;98286.66;;;11.04
79053;BMP280;68451;49.510;6.026;2024-02-15T04:09:40;98257.88;;;10.86
79053;BMP280;68451;49.510;6.026;2024-02-15T04:11:42;98011.19;;;9.30
79053;BMP280;68451;49.510;6.026;2024-02-15T04:13:43;98151.41;;;10.27
79053;BMP280;68451;49.510;6.026;2024-02-15T04:15:45;98274.97;;;11.07
79053;BMP280;68451;49.510;6.026;2024-02-15T04:17:48;98200.13;;;10.58
79053;BMP280;68451;49.510;6.026;2024-02-15T04:19:54;98237.88;;;10.80
79053;BMP280;68451;49.510;6.026;2024-02-15T04:21:57;98260.22;;;10.94
79053;BMP280;68451;49.510;6.026;2024-02-15T04:23:58;98275.75;;;11.07
79053;BMP280;68451;49.510;6.026;2024-02-15T04:26:01;98276.56;;;11.08
79053;BMP280;68451;49.510;6.026;2024-02-15T04:28:03;98260.00;;;10.96
79053;BMP280;68451;49.510;6.026;2024-02-15T04:30:06;98066.94;;;9.78
79053;BMP280;68451;49.510;6.026;2024-02-15T04:32:10;98139.88;;;10.16
79053;BMP280;68451;49.510;6.026;2024-02-15T04:34:13;98255.88;;;10.88
79053;BMP280;68451;49.510;6.026;2024-02-15T04:36:16;98269.00;;;11.00
79053;BMP280;68451;49.510;6.026;2024-02-15T04:38:24;98261.81;;;10.95
79053;BMP280;68451;49.510;6.026;2024-02-15T04:40:27;98267.25;;;10.94
79053;BMP280;68451;49.510;6.026;2024-02-15T04:42:29;98242.50;;;10.78
79053;BMP280;68451;49.510;6.026;2024-02-15T04:44:32;98145.47;;;10.13
79053;BMP280;68451;49.510;6.026;2024-02-15T04:46:37;98242.34;;;10.73
79053;BMP280;68451;49.510;6.026;2024-02-15T04:48:38;98262.03;;;10.94
79053;BMP280;68451;49.510;6.026;2024-02-15T04:50:40;98104.34;;;9.91
79053;BMP280;68451;49.510;6.026;2024-02-15T04:52:44;98256.72;;;10.82
79053;BMP280;68451;49.510;6.026;2024-02-15T04:54:50;98107.16;;;9.89
79053;BMP280;68451;49.510;6.026;2024-02-15T04:56:52;98265.06;;;10.91
79053;BMP280;68451;49.510;6.026;2024-02-15T04:58:56;98205.13;;;10.59
79053;BMP280;68451;49.510;6.026;2024-02-15T05:00:57;98258.69;;;10.87
79053;BMP280;68451;49.510;6.026;2024-02-15T05:03:01;98126.56;;;10.00
79053;BMP280;68451;49.510;6.026;2024-02-15T05:05:03;98094.69;;;9.91
79053;BMP280;68451;49.510;6.026;2024-02-15T05:07:05;98230.59;;;10.82
79053;BMP280;68451;49.510;6.026;2024-02-15T05:09:07;98247.75;;;10.96
79053;BMP280;68451;49.510;6.026;2024-02-15T05:11:12;98243.72;;;10.94
79053;BMP280;68451;49.510;6.026;2024-02-15T05:13:20;98065.94;;;9.79
79053;BMP280;68451;49.510;6.026;2024-02-15T05:15:22;97796.19;;;8.03
79053;BMP280;68451;49.510;6.026;2024-02-15T05:17:27;98199.25;;;10.64
79053;BMP280;68451;49.510;6.026;2024-02-15T05:19:31;98090.06;;;9.93
79053;BMP280;68451;49.510;6.026;2024-02-15T05:21:34;98092.47;;;9.95
79053;BMP280;68451;49.510;6.026;2024-02-15T05:23:36;98138.34;;;10.27
79053;BMP280;68451;49.510;6.026;2024-02-15T05:25:41;98222.09;;;10.68
79053;BMP280;68451;49.510;6.026;2024-02-15T05:27:43;98231.97;;;10.66
79053;BMP280;68451;49.510;6.026;2024-02-15T05:29:45;98197.25;;;10.41
79053;BMP280;68451;49.510;6.026;2024-02-15T05:31:47;98231.38;;;10.64
79053;BMP280;68451;49.510;6.026;2024-02-15T05:33:52;98109.69;;;9.96
79053;BMP280;68451;49.510;6.026;2024-02-15T05:35:55;98224.72;;;10.68
79053;BMP280;68451;49.510;6.026;2024-02-15T05:37:57;98231.97;;;10.66
79053;BMP280;68451;49.510;6.026;2024-02-15T05:39:58;98212.78;;;10.54
79053;BMP280;68451;49.510;6.026;2024-02-15T05:42:00;98220.34;;;10.62
79053;BMP280;68451;49.510;6.026;2024-02-15T05:44:02;98221.38;;;10.61
79053;BMP280;68451;49.510;6.026;2024-02-15T05:46:09;98024.81;;;9.32
79053;BMP280;68451;49.510;6.026;2024-02-15T05:48:11;98019.09;;;9.17
79053;BMP280;68451;49.510;6.026;2024-02-15T05:50:14;98198.16;;;10.28
79053;BMP280;68451;49.510;6.026;2024-02-15T05:52:16;98203.19;;;10.30
79053;BMP280;68451;49.510;6.026;2024-02-15T05:54:20;98216.53;;;10.40
79053;BMP280;68451;49.510;6.026;2024-02-15T05:56:25;98192.59;;;10.25
79053;BMP280;68451;49.510;6.026;2024-02-15T05:58:27;98196.03;;;10.19
79053;BMP280;68451;49.510;6.026;2024-02-15T06:00:29;98237.16;;;10.48
79053;BMP280;68451;49.510;6.026;2024-02-15T06:02:32;98240.28;;;10.57
79053;BMP280;68451;49.510;6.026;2024-02-15T06:04:34;98049.59;;;9.41
79053;BMP280;68451;49.510;6.026;2024-02-15T06:06:36;98218.50;;;10.45
79053;BMP280;68451;49.510;6.026;2024-02-15T06:08:38;98212.75;;;10.36
79053;BMP280;68451;49.510;6.026;2024-02-15T06:10:40;98200.03;;;10.21
79053;BMP280;68451;49.510;6.026;2024-02-15T06:12:42;98215.06;;;10.26
79053;BMP280;68451;49.510;6.026;2024-02-15T06:14:44;98225.06;;;10.29
79053;BMP280;68451;49.510;6.026;2024-02-15T06:16:46;98214.78;;;10.34
79053;BMP280;68451;49.510;6.026;2024-02-15T06:18:48;98208.97;;;10.32
79053;BMP280;68451;49.510;6.026;2024-02-15T06:20:51;98088.38;;;9.56
79053;BMP280;68451;49.510;6.026;2024-02-15T06:22:56;98057.59;;;9.46
79053;BMP280;68451;49.510;6.026;2024-02-15T06:24:58;98206.25;;;10.45
79053;BMP280;68451;49.510;6.026;2024-02-15T06:26:59;98213.91;;;10.40
79053;BMP280;68451;49.510;6.026;2024-02-15T06:29:03;98187.72;;;10.28
79053;BMP280;68451;49.510;6.026;2024-02-15T06:31:23;98170.53;;;10.21
79053;BMP280;68451;49.510;6.026;2024-02-15T06:33:44;98183.44;;;10.16
79053;BMP280;68451;49.510;6.026;2024-02-15T06:36:05;98218.69;;;10.25
79053;BMP280;68451;49.510;6.026;2024-02-15T06:38:26;98197.44;;;10.15
79053;BMP280;68451;49.510;6.026;2024-02-15T06:40:47;98048.28;;;9.25
79053;BMP280;68451;49.510;6.026;2024-02-15T06:42:48;98216.72;;;10.20
79053;BMP280;68451;49.510;6.026;2024-02-15T06:44:50;98222.56;;;10.16
79053;BMP280;68451;49.510;6.026;2024-02-15T06:46:52;98216.34;;;10.17
79053;BMP280;68451;49.510;6.026;2024-02-15T06:48:54;98139.63;;;9.68
79053;BMP280;68451;49.510;6.026;2024-02-15T06:50:56;98203.56;;;10.02
79053;BMP280;68451;49.510;6.026;2024-02-15T06:52:59;97934.69;;;8.30
79053;BMP280;68451;49.510;6.026;2024-02-15T06:55:01;98206.81;;;9.98
79053;BMP280;68451;49.510;6.026;2024-02-15T06:57:03;98203.69;;;9.82
79053;BMP280;68451;49.510;6.026;2024-02-15T06:59:06;98173.53;;;9.68
79053;BMP280;68451;49.510;6.026;2024-02-15T07:01:09;98175.88;;;9.76
79053;BMP280;68451;49.510;6.026;2024-02-15T07:03:11;98167.69;;;9.73
79053;BMP280;68451;49.510;6.026;2024-02-15T07:05:13;98125.34;;;9.46
79053;BMP280;68451;49.510;6.026;2024-02-15T07:07:15;98185.19;;;9.91
79053;BMP280;68451;49.510;6.026;2024-02-15T07:09:18;98187.56;;;9.92
79053;BMP280;68451;49.510;6.026;2024-02-15T07:11:22;98116.09;;;9.50
79053;BMP280;68451;49.510;6.026;2024-02-15T07:13:24;98071.72;;;9.32
79053;BMP280;68451;49.510;6.026;2024-02-15T07:15:28;98088.44;;;9.49
79053;BMP280;68451;49.510;6.026;2024-02-15T07:17:33;98088.59;;;9.54
79053;BMP280;68451;49.510;6.026;2024-02-15T07:19:35;98167.47;;;9.99
79053;BMP280;68451;49.510;6.026;2024-02-15T07:21:38;97902.09;;;8.28
79053;BMP280;68451;49.510;6.026;2024-02-15T07:23:40;98198.38;;;10.27
79053;BMP280;68451;49.510;6.026;2024-02-15T07:25:43;98215.53;;;10.41
79053;BMP280;68451;49.510;6.026;2024-02-15T07:27:44;98172.16;;;10.22
79053;BMP280;68451;49.510;6.026;2024-02-15T07:29:46;98220.78;;;10.59
79053;BMP280;68451;49.510;6.026;2024-02-15T07:31:49;98218.91;;;10.66
79053;BMP280;68451;49.510;6.026;2024-02-15T07:33:51;98197.41;;;10.46
79053;BMP280;68451;49.510;6.026;2024-02-15T07:35:53;98206.00;;;10.53
79053;BMP280;68451;49.510;6.026;2024-02-15T07:37:55;98200.22;;;10.45
79053;BMP280;68451;49.510;6.026;2024-02-15T07:39:59;98133.50;;;10.06
79053;BMP280;68451;49.510;6.026;2024-02-15T07:42:01;98131.69;;;10.06
79053;BMP280;68451;49.510;6.026;2024-02-15T07:44:06;98170.09;;;10.24
79053;BMP280;68451;49.510;6.026;2024-02-15T07:46:11;98223.81;;;10.56
79053;BMP280;68451;49.510;6.026;2024-02-15T07:48:13;98225.19;;;10.59
79053;BMP280;68451;49.510;6.026;2024-02-15T07:50:18;98211.25;;;10.47
79053;BMP280;68451;49.510;6.026;2024-02-15T07:52:24;98234.00;;;10.64
79053;BMP280;68451;49.510;6.026;2024-02-15T07:54:26;98181.22;;;10.38
79053;BMP280;68451;49.510;6.026;2024-02-15T07:56:28;98167.16;;;10.39
79053;BMP280;68451;49.510;6.026;2024-02-15T07:58:30;98219.66;;;10.73
79053;BMP280;68451;49.510;6.026;2024-02-15T08:00:33;98066.53;;;9.81
79053;BMP280;68451;49.510;6.026;2024-02-15T08:02:35;98246.09;;;11.02
79053;BMP280;68451;49.510;6.026;2024-02-15T08:04:37;98075.56;;;10.04
79053;BMP280;68451;49.510;6.026;2024-02-15T08:06:43;98216.03;;;11.11
79053;BMP280;68451;49.510;6.026;2024-02-15T08:08:47;98213.69;;;11.21
79053;BMP280;68451;49.510;6.026;2024-02-15T08:10:49;98209.03;;;11.41
79053;BMP280;68451;49.510;6.026;2024-02-15T08:12:53;98178.53;;;11.35
79053;BMP280;68451;49.510;6.026;2024-02-15T08:14:55;98214.75;;;11.80
79053;BMP280;68451;49.510;6.026;2024-02-15T08:16:57;98232.81;;;12.11
79053;BMP280;68451;49.510;6.026;2024-02-15T08:18:59;98174.50;;;11.81
79053;BMP280;68451;49.510;6.026;2024-02-15T08:21:03;98145.81;;;11.74
79053;BMP280;68451;49.510;6.026;2024-02-15T08:23:06;98183.91;;;12.00
79053;BMP280;68451;49.510;6.026;2024-02-15T08:25:10;98203.91;;;11.94
79053;BMP280;68451;49.510;6.026;2024-02-15T08:27:12;98229.59;;;11.97
79053;BMP280;68451;49.510;6.026;2024-02-15T08:29:14;98204.78;;;11.88
79053;BMP280;68451;49.510;6.026;2024-02-15T08:31:16;98199.34;;;12.01
79053;BMP280;68451;49.510;6.026;2024-02-15T08:33:18;98170.69;;;11.95
79053;BMP280;68451;49.510;6.026;2024-02-15T08:35:21;98224.44;;;12.32
79053;BMP280;68451;49.510;6.026;2024-02-15T08:37:24;98168.66;;;12.08
79053;BMP280;68451;49.510;6.026;2024-02-15T08:39:25;98207.81;;;12.38
79053;BMP280;68451;49.510;6.026;2024-02-15T08:41:27;98129.63;;;11.95
79053;BMP280;68451;49.510;6.026;2024-02-15T08:43:30;98185.84;;;12.39
79053;BMP280;68451;49.510;6.026;2024-02-15T08:45:34;98208.97;;;12.66
79053;BMP280;68451;49.510;6.026;2024-02-15T08:47:37;98182.44;;;12.62
79053;BMP280;68451;49.510;6.026;2024-02-15T08:49:40;98179.69;;;12.69
79053;BMP280;68451;49.510;6.026;2024-02-15T08:51:43;98174.44;;;12.80
79053;BMP280;68451;49.510;6.026;2024-02-15T08:53:45;98171.34;;;12.83
79053;BMP280;68451;49.510;6.026;2024-02-15T08:55:48;98171.09;;;12.96
79053;BMP280;68451;49.510;6.026;2024-02-15T08:57:50;98160.06;;;12.94
79053;BMP280;68451;49.510;6.026;2024-02-15T08:59:52;98195.75;;;13.35
79053;BMP280;68451;49.510;6.026;2024-02-15T09:01:55;98157.06;;;13.14
79053;BMP280;68451;49.510;6.026;2024-02-15T09:03:57;98170.94;;;13.26
79053;BMP280;68451;49.510;6.026;2024-02-15T09:05:59;98166.97;;;13.24
79053;BMP280;68451;49.510;6.026;2024-02-15T09:08:06;97798.22;;;10.86
79053;BMP280;68451;49.510;6.026;2024-02-15T09:10:09;98035.25;;;12.37
79053;BMP280;68451;49.510;6.026;2024-02-15T09:12:14;98161.81;;;13.29
79053;BMP280;68451;49.510;6.026;2024-02-15T09:14:16;98191.81;;;13.50
79053;BMP280;68451;49.510;6.026;2024-02-15T09:16:17;98189.78;;;13.52
79053;BMP280;68451;49.510;6.026;2024-02-15T09:18:19;98184.34;;;13.41
79053;BMP280;68451;49.510;6.026;2024-02-15T09:20:24;98148.72;;;13.17
79053;BMP280;68451;49.510;6.026;2024-02-15T09:22:32;98138.50;;;13.16
79053;BMP280;68451;49.510;6.026;2024-02-15T09:24:34;98176.78;;;13.45
79053;BMP280;68451;49.510;6.026;2024-02-15T09:26:36;98178.91;;;13.60
79053;BMP280;68451;49.510;6.026;2024-02-15T09:28:40;98165.31;;;13.63
79053;BMP280;68451;49.510;6.026;2024-02-15T09:30:42;98156.41;;;13.64
79053;BMP280;68451;49.510;6.026;2024-02-15T09:32:44;97940.34;;;12.30
79053;BMP280;68451;49.510;6.026;2024-02-15T09:34:46;98151.97;;;13.81
79053;BMP280;68451;49.510;6.026;2024-02-15T09:36:48;98164.59;;;13.84
79053;BMP280;68451;49.510;6.026;2024-02-15T09:38:50;98124.44;;;13.67
79053;BMP280;68451;49.510;6.026;2024-02-15T09:40:52;98199.34;;;14.19
79053;BMP280;68451;49.510;6.026;2024-02-15T09:42:54;98162.09;;;14.22
79053;BMP280;68451;49.510;6.026;2024-02-15T09:44:56;98150.47;;;14.18
79053;BMP280;68451;49.510;6.026;2024-02-15T09:47:03;98187.47;;;14.50
79053;BMP280;68451;49.510;6.026;2024-02-15T09:49:11;98147.34;;;14.21
79053;BMP280;68451;49.510;6.026;2024-02-15T09:51:14;98173.63;;;14.21
79053;BMP280;68451;49.510;6.026;2024-02-15T09:53:21;98135.28;;;13.87
79053;BMP280;68451;49.510;6.026;2024-02-15T09:55:22;98186.03;;;14.09
79053;BMP280;68451;49.510;6.026;2024-02-15T09:57:26;98152.28;;;13.68
79053;BMP280;68451;49.510;6.026;2024-02-15T09:59:29;98181.53;;;13.76
79053;BMP280;68451;49.510;6.026;2024-02-15T10:01:33;98122.81;;;13.49
79053;BMP280;68451;49.510;6.026;2024-02-15T10:03:39;98154.25;;;13.61
79053;BMP280;68451;49.510;6.026;2024-02-15T10:05:44;98132.91;;;13.40
79053;BMP280;68451;49.510;6.026;2024-02-15T10:07:46;98123.38;;;13.34
79053;BMP280;68451;49.510;6.026;2024-02-15T10:09:48;98147.13;;;13.44
79053;BMP280;68451;49.510;6.026;2024-02-15T10:11:57;98195.16;;;13.73
79053;BMP280;68451;49.510;6.026;2024-02-15T10:14:10;98180.66;;;13.71
79053;BMP280;68451;49.510;6.026;2024-02-15T10:16:19;98123.13;;;13.36
79053;BMP280;68451;49.510;6.026;2024-02-15T10:18:26;98197.78;;;13.90
79053;BMP280;68451;49.510;6.026;2024-02-15T10:20:28;98185.56;;;13.96
79053;BMP280;68451;49.510;6.026;2024-02-15T10:22:30;98163.13;;;13.88
79053;BMP280;68451;49.510;6.026;2024-02-15T10:24:32;98166.47;;;14.00
79053;BMP280;68451;49.510;6.026;2024-02-15T10:26:35;98111.91;;;13.69
79053;BMP280;68451;49.510;6.026;2024-02-15T10:28:38;98171.09;;;14.10
79053;BMP280;68451;49.510;6.026;2024-02-15T10:30:41;98141.63;;;14.08
79053;BMP280;68451;49.510;6.026;2024-02-15T10:32:47;98158.66;;;14.22
79053;BMP280;68451;49.510;6.026;2024-02-15T10:34:54;98032.84;;;13.49
79053;BMP280;68451;49.510;6.026;2024-02-15T10:37:13;98155.50;;;14.37
79053;BMP280;68451;49.510;6.026;2024-02-15T10:39:21;98090.66;;;14.04
79053;BMP280;68451;49.510;6.026;2024-02-15T10:41:23;97874.97;;;12.80
79053;BMP280;68451;49.510;6.026;2024-02-15T10:43:26;98132.25;;;14.45
79053;BMP280;68451;49.510;6.026;2024-02-15T10:45:30;98123.00;;;14.43
79053;BMP280;68451;49.510;6.026;2024-02-15T10:47:33;98128.41;;;14.53
79053;BMP280;68451;49.510;6.026;2024-02-15T10:49:36;98153.81;;;14.69
79053;BMP280;68451;49.510;6.026;2024-02-15T10:51:39;98163.44;;;14.80
79053;BMP280;68451;49.510;6.026;2024-02-15T10:53:47;98160.38;;;14.66
79053;BMP280;68451;49.510;6.026;2024-02-15T10:56:32;98132.50;;;14.65
79053;BMP280;68451;49.510;6.026;2024-02-15T10:58:32;98117.16;;;14.57
79053;BMP280;68451;49.510;6.026;2024-02-15T11:00:39;97855.44;;;13.04
79053;BMP280;68451;49.510;6.026;2024-02-15T11:03:10;98066.19;;;14.37
79053;BMP280;68451;49.510;6.026;2024-02-15T11:05:12;98122.78;;;14.66
79053;BMP280;68451;49.510;6.026;2024-02-15T11:07:16;98113.38;;;14.70
79053;BMP280;68451;49.510;6.026;2024-02-15T11:09:24;98117.78;;;14.86
79053;BMP280;68451;49.510;6.026;2024-02-15T11:11:30;98076.72;;;14.58
79053;BMP280;68451;49.510;6.026;2024-02-15T11:13:32;98088.56;;;14.61
79053;BMP280;68451;49.510;6.026;2024-02-15T11:15:46;98131.97;;;14.85
79053;BMP280;68451;49.510;6.026;2024-02-15T11:17:52;98077.19;;;14.55
79053;BMP280;68451;49.510;6.026;2024-02-15T11:19:58;98075.06;;;14.52
79053;BMP280;68451;49.510;6.026;2024-02-15T11:22:08;97831.72;;;12.94
79053;BMP280;68451;49.510;6.026;2024-02-15T11:24:29;98032.31;;;14.18
79053;BMP280;68451;49.510;6.026;2024-02-15T11:26:45;98049.78;;;14.29
79053;BMP280;68451;49.510;6.026;2024-02-15T11:28:50;98095.16;;;14.42
79053;BMP280;68451;49.510;6.026;2024-02-15T11:30:53;98095.84;;;14.54
79053;BMP280;68451;49.510;6.026;2024-02-15T11:32:58;98015.97;;;13.95
79053;BMP280;68451;49.510;6.026;2024-02-15T11:35:11;97953.84;;;13.62
79053;BMP280;68451;49.510;6.026;2024-02-15T11:39:59;98092.28;;;14.26
79053;BMP280;68451;49.510;6.026;2024-02-15T11:42:25;98085.38;;;14.20
79053;BMP280;68451;49.510;6.026;2024-02-15T11:44:30;98065.28;;;14.09
79053;BMP280;68451;49.510;6.026;2024-02-15T11:46:33;97865.38;;;12.85
79053;BMP280;68451;49.510;6.026;2024-02-15T11:48:36;98010.84;;;13.83
79053;BMP280;68451;49.510;6.026;2024-02-15T11:50:41;98026.56;;;13.83
79053;BMP280;68451;49.510;6.026;2024-02-15T11:52:44;98047.78;;;13.98
79053;BMP280;68451;49.510;6.026;2024-02-15T11:54:47;98064.16;;;14.05
79053;BMP280;68451;49.510;6.026;2024-02-15T11:56:53;98054.38;;;14.01
79053;BMP280;68451;49.510;6.026;2024-02-15T11:59:11;98058.75;;;13.95